Station History

Weather Underground - logo

Station Historical Data
Daily Summary for August 22, 2017 Units:  English    Metric   Both
« Previous Day
Next Day »
Daily Weekly Monthly Yearly Custom
  High: Low: Average:
Temperature: 96.2 °F 66.4 °F 81 °F
Dew Point: 67.5 °F 60.5 °F 64.3 °F
Humidity: 88 % 31 % 60 %
Wind Speed: 5.8 mph 0.0 mph 1 mph
Wind Gust: 5.8 mph - -
Wind:- - West
Pressure: 29.98 in 29.81 in -
Precipitation: 0.00 in    
Historical Graphs
 
 
Tabular Data for August 22, 2017
Time Temperature Dew Point Pressure Wind Wind Speed Wind Gust Humidity Rainfall Rate (Hourly)
00:01 76.7 °F 63.2 °F 29.89 in Calm     63 % 0.00 in
00:06 76.4 °F 63.8 °F 29.89 in Calm     65 % 0.00 in
00:11 76.2 °F 64.0 °F 29.89 in Calm     66 % 0.00 in
00:16 76.1 °F 63.5 °F 29.89 in Calm     65 % 0.00 in
00:21 75.9 °F 63.7 °F 29.89 in Calm     66 % 0.00 in
00:26 75.6 °F 63.4 °F 29.90 in Calm     66 % 0.00 in
00:31 75.5 °F 63.3 °F 29.90 in Calm     66 % 0.00 in
00:36 75.5 °F 63.3 °F 29.90 in Calm     66 % 0.00 in
00:41 75.4 °F 64.1 °F 29.90 in Calm     68 % 0.00 in
00:46 75.1 °F 63.4 °F 29.90 in Calm     67 % 0.00 in
00:51 74.8 °F 63.5 °F 29.89 in Calm     68 % 0.00 in
00:56 74.6 °F 63.8 °F 29.90 in Calm     69 % 0.00 in
01:01 74.3 °F 63.9 °F 29.90 in Calm     70 % 0.00 in
01:06 74.1 °F 63.7 °F 29.90 in Calm     70 % 0.00 in
01:11 73.9 °F 63.9 °F 29.90 in Calm     71 % 0.00 in
01:16 73.7 °F 64.1 °F 29.90 in Calm     72 % 0.00 in
01:21 73.5 °F 64.3 °F 29.90 in Calm     73 % 0.00 in
01:26 73.4 °F 64.2 °F 29.90 in Calm     73 % 0.00 in
01:31 73.2 °F 64.8 °F 29.90 in Calm     75 % 0.00 in
01:36 73.1 °F 63.9 °F 29.90 in Calm     73 % 0.00 in
01:41 72.9 °F 64.5 °F 29.90 in Calm     75 % 0.00 in
01:46 72.5 °F 64.9 °F 29.90 in Calm     77 % 0.00 in
01:51 72.1 °F 64.9 °F 29.90 in Calm     78 % 0.00 in
01:56 71.9 °F 65.0 °F 29.90 in Calm     79 % 0.00 in
02:01 71.8 °F 64.9 °F 29.90 in Calm     79 % 0.00 in
02:06 71.7 °F 64.8 °F 29.90 in Calm     79 % 0.00 in
02:09 71.6 °F 64.7 °F 29.90 in Calm     79 % 0.00 in
02:14 71.6 °F 64.4 °F 29.90 in Calm     78 % 0.00 in
02:19 71.6 °F 65.1 °F 29.90 in Calm     80 % 0.00 in
02:24 71.5 °F 64.6 °F 29.90 in Calm     79 % 0.00 in
02:29 71.5 °F 65.0 °F 29.90 in Calm     80 % 0.00 in
02:34 71.3 °F 63.7 °F 29.90 in Calm     77 % 0.00 in
02:39 71.6 °F 63.6 °F 29.90 in Calm     76 % 0.00 in
02:44 71.7 °F 63.4 °F 29.90 in Calm     75 % 0.00 in
02:49 71.6 °F 62.9 °F 29.90 in Calm     74 % 0.00 in
02:54 71.6 °F 63.6 °F 29.90 in Calm     76 % 0.00 in
02:59 71.4 °F 62.7 °F 29.90 in Calm     74 % 0.00 in
03:04 71.4 °F 63.4 °F 29.91 in Calm     76 % 0.00 in
03:09 71.2 °F 63.2 °F 29.91 in Calm     76 % 0.00 in
03:14 71.2 °F 63.2 °F 29.91 in Calm     76 % 0.00 in
03:19 71.2 °F 63.2 °F 29.91 in Calm     76 % 0.00 in
03:24 71.0 °F 63.1 °F 29.91 in Calm     76 % 0.00 in
03:29 71.0 °F 62.3 °F 29.91 in Calm     74 % 0.00 in
03:34 70.9 °F 62.6 °F 29.91 in Calm     75 % 0.00 in
03:40 70.9 °F 62.2 °F 29.91 in Calm     74 % 0.00 in
03:45 70.8 °F 62.5 °F 29.91 in Calm     75 % 0.00 in
03:50 70.7 °F 62.8 °F 29.91 in Calm     76 % 0.00 in
03:55 70.4 °F 62.5 °F 29.91 in Calm     76 % 0.00 in
04:00 70.3 °F 63.5 °F 29.91 in Calm     79 % 0.00 in
04:05 70.1 °F 62.9 °F 29.91 in Calm     78 % 0.00 in
04:10 70.0 °F 62.8 °F 29.91 in Calm     78 % 0.00 in
04:15 69.9 °F 63.1 °F 29.91 in Calm     79 % 0.00 in
04:20 69.6 °F 62.8 °F 29.91 in Calm     79 % 0.00 in
04:25 69.2 °F 62.4 °F 29.91 in Calm     79 % 0.00 in
04:30 69.0 °F 62.6 °F 29.91 in Calm     80 % 0.00 in
04:35 68.8 °F 62.4 °F 29.91 in Calm     80 % 0.00 in
04:40 68.7 °F 62.6 °F 29.91 in Calm     81 % 0.00 in
04:45 68.5 °F 62.8 °F 29.92 in Calm     82 % 0.00 in
04:50 68.3 °F 62.9 °F 29.92 in Calm     83 % 0.00 in
04:55 68.2 °F 62.8 °F 29.92 in Calm     83 % 0.00 in
05:00 68.0 °F 62.6 °F 29.92 in Calm     83 % 0.00 in
05:05 67.9 °F 62.5 °F 29.92 in Calm     83 % 0.00 in
05:10 67.8 °F 62.4 °F 29.92 in Calm     83 % 0.00 in
05:15 67.6 °F 62.6 °F 29.92 in Calm     84 % 0.00 in
05:20 67.5 °F 62.5 °F 29.92 in Calm     84 % 0.00 in
05:25 67.3 °F 62.6 °F 29.92 in Calm     85 % 0.00 in
05:30 67.1 °F 62.8 °F 29.92 in Calm     86 % 0.00 in
05:35 67.0 °F 62.7 °F 29.93 in Calm     86 % 0.00 in
05:40 67.0 °F 63.0 °F 29.93 in Calm     87 % 0.00 in
05:45 66.9 °F 62.9 °F 29.93 in Calm     87 % 0.00 in
05:50 66.9 °F 62.9 °F 29.93 in Calm     87 % 0.00 in
05:52 66.9 °F 62.9 °F 29.93 in Calm     87 % 0.00 in
05:57 66.8 °F 62.8 °F 29.93 in Calm     87 % 0.00 in
06:02 66.8 °F 63.1 °F 29.93 in Calm     88 % 0.00 in
06:07 66.9 °F 63.2 °F 29.93 in Calm     88 % 0.00 in
06:12 66.8 °F 62.8 °F 29.94 in Calm     87 % 0.00 in
06:17 66.7 °F 62.7 °F 29.94 in Calm     87 % 0.00 in
06:22 66.6 °F 62.9 °F 29.94 in Calm     88 % 0.00 in
06:27 66.5 °F 62.8 °F 29.94 in Calm     88 % 0.00 in
06:32 66.4 °F 62.7 °F 29.94 in Calm     88 % 0.00 in
06:37 66.4 °F 62.7 °F 29.94 in Calm     88 % 0.00 in
06:42 66.5 °F 62.8 °F 29.95 in Calm     88 % 0.00 in
06:47 66.5 °F 62.8 °F 29.95 in Calm     88 % 0.00 in
06:52 66.5 °F 62.8 °F 29.95 in Calm     88 % 0.00 in
06:57 66.6 °F 62.9 °F 29.95 in Calm     88 % 0.00 in
07:02 66.7 °F 63.0 °F 29.96 in Calm     88 % 0.00 in
07:07 66.8 °F 63.1 °F 29.96 in Calm     88 % 0.00 in
07:12 67.0 °F 63.3 °F 29.96 in Calm     88 % 0.00 in
07:17 67.3 °F 63.3 °F 29.96 in Calm     87 % 0.00 in
07:22 67.6 °F 63.6 °F 29.97 in Calm     87 % 0.00 in
07:27 67.9 °F 63.9 °F 29.97 in Calm     87 % 0.00 in
07:32 68.3 °F 63.9 °F 29.97 in Calm     86 % 0.00 in
07:37 68.6 °F 63.6 °F 29.97 in Calm     84 % 0.00 in
07:42 69.3 °F 64.3 °F 29.97 in Calm     84 % 0.00 in
07:47 70.3 °F 64.5 °F 29.97 in Calm     82 % 0.00 in
07:52 71.3 °F 64.8 °F 29.97 in Calm     80 % 0.00 in
07:57 72.2 °F 65.0 °F 29.98 in Calm     78 % 0.00 in
08:02 73.2 °F 65.2 °F 29.98 in Calm     76 % 0.00 in
08:07 73.9 °F 65.1 °F 29.98 in Calm     74 % 0.00 in
08:12 73.9 °F 65.5 °F 29.98 in Calm     75 % 0.00 in
08:17 74.5 °F 65.3 °F 29.98 in Calm     73 % 0.00 in
08:22 74.9 °F 64.5 °F 29.98 in Calm     70 % 0.00 in
08:27 75.2 °F 64.7 °F 29.98 in Calm     70 % 0.00 in
08:32 75.5 °F 64.6 °F 29.98 in NW 1.0 mph 1.0 mph 69 % 0.00 in
08:37 75.3 °F 64.4 °F 29.98 in WSW 1.0 mph 1.0 mph 69 % 0.00 in
08:42 75.5 °F 64.6 °F 29.98 in Calm     69 % 0.00 in
08:47 75.8 °F 64.9 °F 29.98 in NW 1.0 mph 1.0 mph 69 % 0.00 in
08:52 76.2 °F 64.9 °F 29.98 in Calm     68 % 0.00 in
08:57 76.6 °F 65.2 °F 29.98 in Calm     68 % 0.00 in
09:02 76.7 °F 64.9 °F 29.98 in WNW 1.0 mph 1.0 mph 67 % 0.00 in
09:08 77.4 °F 65.6 °F 29.98 in South 1.2 mph 1.2 mph 67 % 0.00 in
09:13 78.4 °F 65.2 °F 29.98 in Calm   0.4 mph 64 % 0.00 in
09:18 78.6 °F 65.4 °F 29.98 in North 2.3 mph 2.3 mph 64 % 0.00 in
09:23 79.2 °F 66.0 °F 29.98 in Calm     64 % 0.00 in
09:28 79.8 °F 66.1 °F 29.98 in SE 2.3 mph 2.3 mph 63 % 0.00 in
09:33 80.2 °F 65.5 °F 29.98 in West 1.2 mph 1.2 mph 61 % 0.00 in
09:38 80.6 °F 65.4 °F 29.98 in NW 3.5 mph 3.5 mph 60 % 0.00 in
09:43 80.9 °F 66.2 °F 29.98 in South 1.2 mph 1.2 mph 61 % 0.00 in
09:48 81.4 °F 66.2 °F 29.98 in ESE 2.3 mph 2.3 mph 60 % 0.00 in
09:53 81.7 °F 66.5 °F 29.98 in Calm     60 % 0.00 in
09:58 81.9 °F 66.2 °F 29.98 in SSE 2.3 mph 2.3 mph 59 % 0.00 in
10:03 82.3 °F 66.0 °F 29.98 in WNW 1.2 mph 1.2 mph 58 % 0.00 in
10:08 82.5 °F 65.7 °F 29.98 in SSE 1.2 mph   57 % 0.00 in
10:13 82.6 °F 66.3 °F 29.98 in Calm     58 % 0.00 in
10:18 83.2 °F 66.9 °F 29.98 in South 2.3 mph 2.3 mph 58 % 0.00 in
10:23 83.2 °F 66.4 °F 29.98 in WNW 1.2 mph 1.2 mph 57 % 0.00 in
10:28 83.3 °F 65.4 °F 29.98 in North 2.3 mph 2.3 mph 55 % 0.00 in
10:33 83.6 °F 66.8 °F 29.98 in SE 1.2 mph 1.2 mph 57 % 0.00 in
10:38 83.7 °F 66.8 °F 29.97 in East 1.2 mph 1.2 mph 57 % 0.00 in
10:39 83.7 °F 66.8 °F 29.97 in East 1.2 mph   57 % 0.00 in
10:44 84.3 °F 65.8 °F 29.97 in North 1.2 mph 1.2 mph 54 % 0.00 in
10:49 84.0 °F 65.0 °F 29.97 in NW 1.2 mph 1.2 mph 53 % 0.00 in
10:54 84.5 °F 66.0 °F 29.97 in West 1.2 mph 1.2 mph 54 % 0.00 in
10:59 84.4 °F 65.4 °F 29.97 in NW 2.3 mph 2.3 mph 53 % 0.00 in
11:04 84.3 °F 65.8 °F 29.97 in SW 3.5 mph 3.5 mph 54 % 0.00 in
11:09 84.8 °F 66.3 °F 29.97 in SE 2.3 mph 2.3 mph 54 % 0.00 in
11:14 85.0 °F 65.4 °F 29.97 in ESE 2.3 mph   52 % 0.00 in
11:19 85.7 °F 67.1 °F 29.97 in NW 1.2 mph 1.2 mph 54 % 0.00 in
11:24 86.1 °F 66.4 °F 29.97 in ESE 1.2 mph 1.2 mph 52 % 0.00 in
11:29 86.4 °F 66.1 °F 29.97 in SE 1.2 mph 1.2 mph 51 % 0.00 in
11:34 86.3 °F 65.5 °F 29.96 in NNW 1.2 mph 1.2 mph 50 % 0.00 in
11:39 86.5 °F 66.2 °F 29.96 in North 1.2 mph 1.2 mph 51 % 0.00 in
11:44 86.9 °F 66.6 °F 29.96 in North 1.0 mph   51 % 0.00 in
11:49 87.0 °F 65.5 °F 29.96 in SE 1.2 mph 1.2 mph 49 % 0.00 in
11:54 87.9 °F 66.9 °F 29.96 in NW 2.3 mph 2.3 mph 50 % 0.00 in
11:59 88.6 °F 66.4 °F 29.95 in ENE 2.0 mph 2.0 mph 48 % 0.00 in
12:04 88.7 °F 65.9 °F 29.95 in NW 3.5 mph 3.5 mph 47 % 0.00 in
12:09 88.1 °F 66.5 °F 29.95 in ESE 1.2 mph 1.2 mph 49 % 0.00 in
12:14 88.3 °F 66.1 °F 29.95 in ESE 2.3 mph 2.3 mph 48 % 0.00 in
12:15 88.3 °F 66.7 °F 29.95 in South 3.5 mph 3.5 mph 49 % 0.00 in
12:20 88.9 °F 66.7 °F 29.95 in NW 1.2 mph 1.2 mph 48 % 0.00 in
12:25 89.4 °F 66.5 °F 29.95 in NW 3.5 mph 3.5 mph 47 % 0.00 in
12:30 89.3 °F 66.4 °F 29.94 in NNW 1.2 mph 1.2 mph 47 % 0.00 in
12:35 89.6 °F 66.1 °F 29.94 in WNW 2.3 mph 2.3 mph 46 % 0.00 in
12:40 89.8 °F 67.5 °F 29.94 in SSE 1.2 mph 1.2 mph 48 % 0.00 in
12:45 90.4 °F 65.5 °F 29.93 in South 2.3 mph 2.3 mph 44 % 0.00 in
12:50 90.8 °F 65.2 °F 29.93 in SE 3.5 mph 3.5 mph 43 % 0.00 in
12:55 91.5 °F 65.8 °F 29.93 in WNW 3.5 mph 3.5 mph 43 % 0.00 in
13:00 91.2 °F 65.6 °F 29.93 in North 2.3 mph 2.3 mph 43 % 0.00 in
13:05 90.7 °F 64.5 °F 29.92 in NW 2.3 mph 2.3 mph 42 % 0.00 in
13:10 90.7 °F 65.8 °F 29.92 in West 2.3 mph 2.3 mph 44 % 0.00 in
13:15 91.6 °F 65.9 °F 29.92 in NW 1.2 mph 1.2 mph 43 % 0.00 in
13:20 92.2 °F 64.4 °F 29.92 in NW 2.3 mph 2.3 mph 40 % 0.00 in
13:25 92.3 °F 65.2 °F 29.92 in WSW 1.2 mph 1.2 mph 41 % 0.00 in
13:30 92.3 °F 65.2 °F 29.92 in WNW 3.5 mph 3.5 mph 41 % 0.00 in
13:35 92.2 °F 65.8 °F 29.91 in NW 2.0 mph 2.0 mph 42 % 0.00 in
13:41 92.2 °F 63.7 °F 29.91 in NW 3.5 mph 3.5 mph 39 % 0.00 in
13:46 92.4 °F 65.3 °F 29.91 in Calm     41 % 0.00 in
13:51 93.2 °F 65.3 °F 29.91 in WSW 3.5 mph 3.5 mph 40 % 0.00 in
13:56 93.1 °F 65.2 °F 29.91 in WNW 4.0 mph 4.0 mph 40 % 0.00 in
14:01 92.8 °F 64.2 °F 29.90 in SW 3.5 mph 3.5 mph 39 % 0.00 in
14:06 92.5 °F 63.9 °F 29.90 in SSE 3.5 mph 3.5 mph 39 % 0.00 in
14:11 92.8 °F 65.6 °F 29.90 in WNW 3.5 mph 3.5 mph 41 % 0.00 in
14:16 93.0 °F 66.5 °F 29.90 in North 1.2 mph 1.2 mph 42 % 0.00 in
14:21 93.4 °F 65.5 °F 29.90 in NW 2.3 mph 2.3 mph 40 % 0.00 in
14:26 93.3 °F 64.7 °F 29.90 in WNW 2.3 mph 2.3 mph 39 % 0.00 in
14:31 93.2 °F 65.3 °F 29.89 in NNW 3.5 mph 3.5 mph 40 % 0.00 in
14:36 93.4 °F 65.5 °F 29.89 in WNW 3.5 mph 3.5 mph 40 % 0.00 in
14:41 93.6 °F 65.6 °F 29.89 in NW 2.3 mph 2.3 mph 40 % 0.00 in
14:46 93.5 °F 66.3 °F 29.88 in NNW 2.3 mph 2.3 mph 41 % 0.00 in
14:51 93.8 °F 65.8 °F 29.88 in NW 3.5 mph 3.5 mph 40 % 0.00 in
14:56 93.7 °F 65.0 °F 29.88 in NW 3.5 mph 3.5 mph 39 % 0.00 in
15:01 93.7 °F 65.7 °F 29.87 in NW 3.5 mph 3.5 mph 40 % 0.00 in
15:06 94.1 °F 65.4 °F 29.87 in NNW 3.5 mph 3.5 mph 39 % 0.00 in
15:11 94.2 °F 65.4 °F 29.87 in NW 2.3 mph 2.3 mph 39 % 0.00 in
15:16 94.3 °F 65.5 °F 29.87 in North 2.3 mph 2.3 mph 39 % 0.00 in
15:21 94.5 °F 65.7 °F 29.87 in NW 3.5 mph 3.5 mph 39 % 0.00 in
15:26 94.5 °F 65.0 °F 29.86 in NNW 2.3 mph 2.3 mph 38 % 0.00 in
15:31 94.3 °F 64.0 °F 29.86 in WNW 5.8 mph 5.8 mph 37 % 0.00 in
15:36 94.5 °F 64.2 °F 29.86 in WNW 3.5 mph 3.5 mph 37 % 0.00 in
15:41 95.0 °F 65.4 °F 29.86 in WNW 3.0 mph 3.0 mph 38 % 0.00 in
15:46 94.7 °F 63.6 °F 29.86 in WNW 3.5 mph 3.5 mph 36 % 0.00 in
15:52 94.7 °F 63.6 °F 29.86 in WNW 3.5 mph 3.5 mph 36 % 0.00 in
15:57 95.3 °F 65.7 °F 29.85 in NW 3.5 mph 3.5 mph 38 % 0.00 in
16:02 95.4 °F 63.4 °F 29.85 in WSW 3.5 mph 3.5 mph 35 % 0.00 in
16:07 95.2 °F 65.6 °F 29.85 in NW 3.5 mph 3.5 mph 38 % 0.00 in
16:12 95.0 °F 65.4 °F 29.85 in WNW 3.5 mph 3.5 mph 38 % 0.00 in
16:17 95.2 °F 66.3 °F 29.85 in North 2.3 mph 2.3 mph 39 % 0.00 in
16:22 95.6 °F 64.4 °F 29.85 in NW 2.3 mph 2.3 mph 36 % 0.00 in
16:27 95.4 °F 64.2 °F 29.84 in NNW 3.5 mph 3.5 mph 36 % 0.00 in
16:32 95.5 °F 61.8 °F 29.84 in NW 2.3 mph 2.3 mph 33 % 0.00 in
16:37 95.6 °F 63.6 °F 29.84 in WNW 2.3 mph 2.3 mph 35 % 0.00 in
16:42 95.9 °F 63.0 °F 29.84 in NW 2.3 mph 2.3 mph 34 % 0.00 in
16:47 95.8 °F 63.8 °F 29.84 in NW 3.5 mph 3.5 mph 35 % 0.00 in
16:52 95.6 °F 61.9 °F 29.83 in NW 3.5 mph 3.5 mph 33 % 0.00 in
16:57 95.7 °F 62.8 °F 29.83 in NW 3.5 mph 3.5 mph 34 % 0.00 in
17:02 96.0 °F 63.1 °F 29.83 in NW 2.0 mph 2.0 mph 34 % 0.00 in
17:07 96.2 °F 63.3 °F 29.83 in NW 3.5 mph 3.5 mph 34 % 0.00 in
17:08 96.1 °F 63.2 °F 29.83 in NW 3.0 mph 3.0 mph 34 % 0.00 in
17:13 95.9 °F 62.2 °F 29.83 in NW 2.3 mph 2.3 mph 33 % 0.00 in
17:18 95.8 °F 62.1 °F 29.83 in WNW 3.5 mph 3.5 mph 33 % 0.00 in
17:23 95.9 °F 62.2 °F 29.83 in NW 2.3 mph 2.3 mph 33 % 0.00 in
17:28 96.0 °F 60.5 °F 29.83 in NW 2.3 mph 2.3 mph 31 % 0.00 in
17:33 95.8 °F 63.8 °F 29.82 in NNW 3.5 mph 3.5 mph 35 % 0.00 in
17:38 95.8 °F 64.6 °F 29.82 in NW 2.3 mph 2.3 mph 36 % 0.00 in
17:43 95.8 °F 62.9 °F 29.82 in NW 3.5 mph 3.5 mph 34 % 0.00 in
17:48 95.6 °F 62.8 °F 29.82 in NW 5.8 mph 5.8 mph 34 % 0.00 in
17:53 95.4 °F 62.6 °F 29.82 in NW 3.5 mph 3.5 mph 34 % 0.00 in
17:58 95.2 °F 62.4 °F 29.82 in North 3.5 mph 3.5 mph 34 % 0.00 in
18:03 95.1 °F 63.9 °F 29.82 in NW 1.2 mph 1.2 mph 36 % 0.00 in
18:08 95.1 °F 63.1 °F 29.81 in NW 3.5 mph 3.5 mph 35 % 0.00 in
18:13 94.9 °F 63.8 °F 29.81 in NW 1.2 mph 1.2 mph 36 % 0.00 in
18:18 94.8 °F 64.5 °F 29.81 in NW 1.2 mph 1.2 mph 37 % 0.00 in
18:23 94.6 °F 63.5 °F 29.81 in NW 2.3 mph 2.3 mph 36 % 0.00 in
18:28 94.3 °F 63.2 °F 29.81 in NW 2.3 mph 2.3 mph 36 % 0.00 in
18:33 93.6 °F 63.4 °F 29.81 in NW 2.3 mph 2.3 mph 37 % 0.00 in
18:38 93.0 °F 64.4 °F 29.81 in NNW 2.3 mph 2.3 mph 39 % 0.00 in
18:43 92.4 °F 64.6 °F 29.81 in West 1.2 mph 1.2 mph 40 % 0.00 in
18:48 91.8 °F 64.7 °F 29.81 in Calm     41 % 0.00 in
18:53 91.3 °F 64.3 °F 29.81 in Calm     41 % 0.00 in
18:58 90.8 °F 64.5 °F 29.81 in NW 1.2 mph 1.2 mph 42 % 0.00 in
19:04 90.4 °F 64.9 °F 29.81 in NW 1.2 mph   43 % 0.00 in
19:09 89.8 °F 64.3 °F 29.81 in NW 1.2 mph 1.2 mph 43 % 0.00 in
19:14 89.5 °F 64.7 °F 29.81 in Calm     44 % 0.00 in
19:19 89.0 °F 64.9 °F 29.82 in Calm     45 % 0.00 in
19:24 88.7 °F 64.0 °F 29.82 in Calm     44 % 0.00 in
19:29 88.4 °F 64.4 °F 29.82 in Calm     45 % 0.00 in
19:34 88.0 °F 64.6 °F 29.82 in Calm     46 % 0.00 in
19:39 87.4 °F 64.7 °F 29.82 in Calm     47 % 0.00 in
19:44 87.0 °F 64.3 °F 29.82 in Calm     47 % 0.00 in
19:49 86.8 °F 64.8 °F 29.82 in Calm     48 % 0.00 in
19:54 86.3 °F 64.3 °F 29.82 in Calm     48 % 0.00 in
19:59 85.9 °F 63.9 °F 29.82 in NNW 1.2 mph 1.2 mph 48 % 0.00 in
20:04 85.4 °F 64.1 °F 29.82 in NNW 1.0 mph 1.0 mph 49 % 0.00 in
20:09 85.1 °F 63.8 °F 29.83 in Calm     49 % 0.00 in
20:14 84.9 °F 64.2 °F 29.83 in Calm     50 % 0.00 in
20:19 84.7 °F 63.4 °F 29.83 in Calm     49 % 0.00 in
20:24 84.5 °F 63.8 °F 29.83 in Calm     50 % 0.00 in
20:26 84.3 °F 64.8 °F 29.83 in Calm     52 % 0.00 in
20:31 83.9 °F 63.8 °F 29.84 in Calm     51 % 0.00 in
20:36 83.7 °F 64.2 °F 29.84 in Calm     52 % 0.00 in
20:41 83.4 °F 63.9 °F 29.84 in Calm     52 % 0.00 in
20:46 82.8 °F 64.5 °F 29.84 in Calm     54 % 0.00 in
20:51 82.1 °F 64.8 °F 29.84 in Calm     56 % 0.00 in
20:56 81.4 °F 64.7 °F 29.84 in Calm     57 % 0.00 in
21:01 80.8 °F 64.6 °F 29.85 in Calm     58 % 0.00 in
21:06 80.0 °F 64.9 °F 29.85 in Calm     60 % 0.00 in
21:11 79.3 °F 65.1 °F 29.85 in Calm     62 % 0.00 in
21:16 78.8 °F 65.1 °F 29.85 in Calm     63 % 0.00 in
21:21 78.5 °F 65.3 °F 29.85 in Calm     64 % 0.00 in
21:26 78.1 °F 64.5 °F 29.85 in Calm     63 % 0.00 in
21:32 77.9 °F 64.3 °F 29.85 in Calm     63 % 0.00 in
21:37 77.7 °F 64.5 °F 29.85 in Calm     64 % 0.00 in
21:42 77.5 °F 64.4 °F 29.85 in Calm     64 % 0.00 in
21:47 77.3 °F 64.6 °F 29.86 in Calm     65 % 0.00 in
21:52 76.9 °F 64.2 °F 29.86 in Calm     65 % 0.00 in
21:57 76.4 °F 64.2 °F 29.86 in Calm     66 % 0.00 in
22:02 76.0 °F 64.2 °F 29.85 in Calm     67 % 0.00 in
22:07 75.9 °F 63.7 °F 29.85 in Calm     66 % 0.00 in
22:12 76.1 °F 63.9 °F 29.85 in Calm     66 % 0.00 in
22:17 76.2 °F 63.6 °F 29.85 in Calm     65 % 0.00 in
22:22 76.2 °F 64.0 °F 29.86 in Calm     66 % 0.00 in
22:27 76.2 °F 64.0 °F 29.85 in Calm     66 % 0.00 in
22:32 76.0 °F 64.2 °F 29.85 in Calm     67 % 0.00 in
22:37 75.7 °F 64.4 °F 29.85 in Calm     68 % 0.00 in
22:42 75.6 °F 64.3 °F 29.86 in SE 1.2 mph   68 % 0.00 in
22:48 75.8 °F 64.5 °F 29.86 in Calm     68 % 0.00 in
22:53 75.6 °F 64.3 °F 29.86 in Calm     68 % 0.00 in
22:58 75.3 °F 64.0 °F 29.86 in Calm     68 % 0.00 in
23:03 75.3 °F 64.0 °F 29.86 in SE 1.2 mph   68 % 0.00 in
23:08 75.4 °F 64.1 °F 29.86 in NNE 1.2 mph 1.2 mph 68 % 0.00 in
23:13 75.4 °F 64.5 °F 29.86 in Calm     69 % 0.00 in
23:18 75.2 °F 64.3 °F 29.86 in Calm     69 % 0.00 in
23:23 75.2 °F 64.3 °F 29.86 in Calm     69 % 0.00 in
23:28 75.1 °F 64.2 °F 29.86 in Calm     69 % 0.00 in
23:33 74.9 °F 64.0 °F 29.86 in Calm     69 % 0.00 in
23:38 74.6 °F 63.8 °F 29.86 in Calm     69 % 0.00 in
23:43 74.3 °F 63.5 °F 29.86 in Calm     69 % 0.00 in
23:48 74.1 °F 63.7 °F 29.86 in Calm     70 % 0.00 in
23:53 73.9 °F 64.7 °F 29.86 in Calm     73 % 0.00 in
23:58 73.9 °F 63.9 °F 29.86 in Calm     71 % 0.00 in
Park Place, Exeter, Tulare County, California, USA
Compliments of Weather Underground - 2.75 mb